Time;durP1;ratioP1;P1;durP2;ratioP2;P2;SDS_P1;SDS_P2;PMS_P1;PMS_P2;Temp;Humidity;BMP_temperature;BMP_pressure;BME280_temperature;BME280_humidity;BME280_pressure;Samples;Min_cycle;Max_cycle;Signal;HPM_P1;HPM_P2
2023/02/25 00:01:37;;;;;;;0.80;0.80;;;8.30;85.20;;;7.87;69.03;93071.00;5036932;28;20211;-17
2023/02/25 00:04:04;;;;;;;0.70;0.70;;;8.20;85.50;;;7.83;69.23;93071.44;5037014;28;20196;-17
2023/02/25 00:06:31;;;;;;;0.70;0.70;;;8.20;85.90;;;7.84;69.45;93078.25;5054197;28;20196;-17
2023/02/25 00:08:59;;;;;;;0.77;0.77;;;8.20;86.00;;;7.83;68.77;93086.31;5054032;28;20243;-17
2023/02/25 00:11:27;;;;;;;0.70;0.70;;;8.10;85.70;;;7.76;68.64;93088.22;5055784;28;20192;-17
2023/02/25 00:13:54;;;;;;;0.60;0.60;;;8.10;85.50;;;7.61;68.81;93104.25;5058046;28;20222;-16
2023/02/25 00:16:22;;;;;;;0.70;0.70;;;8.00;85.60;;;7.47;69.03;93093.97;5040692;28;20192;-16
2023/02/25 00:18:57;;;;;;;0.70;0.70;;;7.90;85.50;;;7.34;69.22;93096.72;5040294;28;20188;-16
2023/02/25 00:21:25;;;;;;;0.70;0.70;;;7.80;85.30;;;7.30;69.46;93098.13;5058031;28;20171;-16
2023/02/25 00:23:53;;;;;;;0.80;0.80;;;7.70;85.70;;;7.24;68.16;93104.22;5057583;28;20196;-16
2023/02/25 00:26:21;;;;;;;0.68;0.68;;;7.60;85.40;;;7.04;68.22;93098.19;5057820;28;20194;-16
2023/02/25 00:28:49;;;;;;;0.70;0.70;;;7.50;85.00;;;6.95;68.02;93098.69;5057620;28;20522;-16
2023/02/25 00:31:22;;;;;;;0.80;0.80;;;7.40;85.00;;;6.78;68.12;93095.81;5057483;28;20648;-16
2023/02/25 00:33:52;;;;;;;0.60;0.60;;;7.30;84.70;;;6.65;68.56;93096.72;5039847;28;20257;-16
2023/02/25 00:36:25;;;;;;;0.80;0.80;;;7.10;84.90;;;6.56;68.53;93104.78;5040105;28;20192;-16
2023/02/25 00:38:55;;;;;;;0.60;0.60;;;7.00;84.80;;;6.44;68.49;93109.06;5039662;28;20183;-16
2023/02/25 00:41:27;;;;;;;0.80;0.80;;;6.90;85.00;;;6.36;68.38;93110.13;5057378;28;20204;-16
2023/02/25 00:43:58;;;;;;;0.65;0.65;;;6.80;84.80;;;6.24;68.16;93117.81;5040625;28;20196;-16
2023/02/25 00:46:26;;;;;;;0.70;0.70;;;6.70;84.70;;;6.16;68.77;93119.88;5057549;28;20191;-16
2023/02/25 00:48:53;;;;;;;0.70;0.70;;;6.60;85.10;;;6.12;69.66;93118.69;5039786;28;20249;-16
2023/02/25 00:51:24;;;;;;;0.70;0.70;;;6.50;85.30;;;6.07;69.41;93107.09;5039546;28;20196;-16
2023/02/25 00:53:53;;;;;;;0.70;0.70;;;6.50;85.30;;;6.05;69.26;93106.53;5039796;28;20180;-16
2023/02/25 00:56:20;;;;;;;0.70;0.70;;;6.50;85.40;;;6.02;69.75;93103.53;5056984;28;20196;-18
2023/02/25 00:58:49;;;;;;;0.63;0.63;;;6.40;85.70;;;5.98;70.08;93097.09;5056874;28;20197;-16
2023/02/25 01:01:24;;;;;;;0.65;0.65;;;6.40;85.70;;;6.01;70.08;93112.34;5056912;28;20198;-16
2023/02/25 01:03:55;;;;;;;0.60;0.60;;;6.40;85.90;;;5.99;69.73;93098.72;5056956;28;20184;-16
2023/02/25 01:06:24;;;;;;;0.70;0.70;;;6.40;85.80;;;5.95;69.13;93094.94;5039348;28;20294;-16
2023/02/25 01:08:52;;;;;;;0.70;0.70;;;6.40;85.80;;;5.95;68.95;93105.34;5039207;28;20206;-16
2023/02/25 01:11:26;;;;;;;0.80;0.80;;;6.30;85.70;;;5.89;69.60;93099.94;5057168;28;20196;-16
2023/02/25 01:13:55;;;;;;;0.60;0.60;;;6.30;85.80;;;5.92;69.97;93107.34;5038924;28;20211;-16
2023/02/25 01:16:25;;;;;;;0.60;0.60;;;6.20;86.00;;;5.94;70.00;93109.72;5039025;28;20274;-16
2023/02/25 01:18:59;;;;;;;0.70;0.70;;;6.30;86.20;;;5.96;69.26;93120.75;5057026;28;20192;-16
2023/02/25 01:21:34;;;;;;;0.70;0.70;;;6.30;85.60;;;5.92;69.20;93132.59;5056597;28;20183;-16
2023/02/25 01:24:21;;;;;;;0.90;0.90;;;6.30;85.70;;;5.85;nan;93132.59;5055875;28;20180;-16
2023/02/25 01:26:52;;;;;;;0.70;0.70;;;6.20;85.60;;;5.80;69.24;93121.19;5022511;28;20277;-16
2023/02/25 01:29:27;;;;;;;0.60;0.60;;;6.20;85.80;;;5.76;69.93;93124.22;5056414;28;20675;-16
2023/02/25 01:31:58;;;;;;;0.70;0.70;;;6.20;86.00;;;5.77;69.91;93130.22;5056577;28;20211;-16
2023/02/25 01:34:27;;;;;;;0.70;0.70;;;6.20;86.10;;;5.81;69.53;93147.03;5038636;28;20188;-16
2023/02/25 01:36:55;;;;;;;0.60;0.60;;;6.20;86.20;;;5.80;69.15;93142.00;5056635;28;20196;-16
2023/02/25 01:39:23;;;;;;;0.70;0.70;;;6.10;86.10;;;5.80;69.82;93142.81;5038779;28;20525;-16
2023/02/25 01:41:55;;;;;;;0.65;0.65;;;6.10;86.30;;;5.80;69.72;93142.00;5056714;28;20249;-16
2023/02/25 01:44:32;;;;;;;0.70;0.70;;;6.10;86.30;;;5.79;69.48;93143.03;5055901;28;20192;-16
2023/02/25 01:47:00;;;;;;;0.70;0.70;;;6.10;86.30;;;5.80;69.64;93142.00;5039113;28;20234;-16
2023/02/25 01:49:43;;;;;;;0.63;0.63;;;6.10;86.50;;;5.82;69.61;93140.78;5038451;28;20200;-16
2023/02/25 01:52:18;;;;;;;0.70;0.70;;;6.10;86.40;;;5.79;69.85;93146.44;5055899;28;20251;-16
2023/02/25 01:54:49;;;;;;;0.70;0.70;;;6.10;86.30;;;5.76;69.58;93146.81;5021896;28;20215;-16
2023/02/25 01:57:18;;;;;;;0.80;0.80;;;6.10;86.30;;;5.73;69.25;93145.44;5038285;28;20291;-17
2023/02/25 01:59:46;;;;;;;0.80;0.80;;;6.00;86.20;;;5.74;69.37;93149.63;5021916;28;20258;-17
2023/02/25 02:02:18;;;;;;;0.60;0.60;;;6.00;86.40;;;5.75;69.37;93134.84;5022105;28;20251;-16
2023/02/25 02:04:50;;;;;;;0.70;0.70;;;6.00;86.40;;;5.76;69.33;93133.81;5021619;28;20192;-16
2023/02/25 02:07:20;;;;;;;0.70;0.70;;;6.00;86.50;;;5.76;69.38;93142.44;5022783;28;20608;-16
2023/02/25 02:09:57;;;;;;;0.70;0.70;;;6.10;86.60;;;5.78;69.27;93139.63;5038314;28;20204;-16
2023/02/25 02:12:45;;;;;;;0.70;0.70;;;6.10;86.50;;;5.74;68.84;93136.63;5038064;28;20214;-16
2023/02/25 02:15:14;;;;;;;0.60;0.60;;;6.10;86.10;;;5.75;69.29;93127.03;5055632;28;20189;-16
2023/02/25 02:18:02;;;;;;;0.70;0.70;;;6.00;86.40;;;5.76;69.31;93134.63;5038112;28;20196;-16
2023/02/25 02:21:16;;;;;;;0.70;0.70;;;6.00;86.40;;;5.80;69.17;93148.03;5055378;28;20231;-16
2023/02/25 02:23:55;;;;;;;0.60;0.60;;;6.00;86.30;;;5.75;69.00;93146.03;5038691;28;20214;-16
2023/02/25 02:26:53;;;;;;;0.60;0.60;;;6.10;86.00;;;5.67;68.45;93133.25;5055858;28;20572;-16
2023/02/25 02:30:03;;;;;;;0.70;0.70;;;6.00;85.80;;;5.62;68.81;93133.06;5055300;28;20187;-16
2023/02/25 02:32:45;;;;;;;0.77;0.77;;;5.90;86.00;;;5.65;68.69;93124.06;5055188;28;20615;-16
2023/02/25 02:35:34;;;;;;;0.70;0.70;;;5.90;86.40;;;5.59;68.84;93115.28;5037574;28;20188;-16
2023/02/25 02:38:48;;;;;;;0.70;0.70;;;5.90;86.10;;;5.60;68.42;93127.28;5055647;28;20192;-16
2023/02/25 02:41:25;;;;;;;0.80;0.80;;;5.90;86.00;;;5.58;68.25;93131.91;5028801;28;20210;-16
2023/02/25 02:44:36;;;;;;;0.70;0.70;;;5.90;85.80;;;5.55;68.42;93129.69;5055377;28;20198;-16
2023/02/25 02:47:15;;;;;;;0.65;0.65;;;5.90;86.10;;;5.54;68.38;93126.31;5054232;28;20203;-17
2023/02/25 02:49:56;;;;;;;0.70;0.70;;;5.80;85.90;;;5.54;68.07;93133.28;5037618;28;20603;-16
2023/02/25 02:52:28;;;;;;;0.70;0.70;;;5.80;85.90;;;5.55;68.51;93140.09;5054901;28;20200;-16
2023/02/25 02:55:24;;;;;;;0.77;0.77;;;5.80;86.10;;;5.56;68.13;93157.31;5037671;28;20180;-16
2023/02/25 02:58:08;;;;;;;0.60;0.60;;;5.80;86.10;;;5.59;67.93;93159.47;5017529;28;20238;-16
2023/02/25 03:00:46;;;;;;;0.60;0.60;;;5.90;86.00;;;5.55;67.70;93159.09;5054908;28;20309;-16
2023/02/25 03:03:21;;;;;;;0.70;0.70;;;5.90;85.90;;;5.56;67.72;93157.31;5037508;28;20210;-16
2023/02/25 03:05:52;;;;;;;0.80;0.80;;;5.80;85.90;;;5.54;67.11;93165.31;5037350;28;20526;-17
2023/02/25 03:08:24;;;;;;;0.70;0.70;;;5.80;85.50;;;5.52;67.46;93159.50;5020881;28;20196;-16
2023/02/25 03:10:51;;;;;;;0.60;0.60;;;5.80;85.60;;;5.49;67.12;93172.13;5037425;28;20543;-16
2023/02/25 03:13:20;;;;;;;0.70;0.70;;;5.70;85.70;;;5.45;67.50;93167.31;5037781;28;20219;-16
2023/02/25 03:15:49;;;;;;;0.70;0.70;;;5.70;85.70;;;5.48;67.53;93168.72;5037028;28;20287;-16
2023/02/25 03:18:35;;;;;;;0.80;0.80;;;5.70;85.60;;;5.45;67.71;93172.50;5037971;28;20521;-16
2023/02/25 03:21:14;;;;;;;0.60;0.60;;;5.70;85.60;;;5.51;67.41;93178.72;5037499;28;20236;-16
2023/02/25 03:23:45;;;;;;;0.63;0.63;;;5.80;85.50;;;5.49;67.48;93178.09;5021743;28;20250;-16
2023/02/25 03:26:25;;;;;;;0.70;0.70;;;5.70;85.70;;;5.48;67.32;93179.13;5020558;28;20214;-16
2023/02/25 03:28:58;;;;;;;0.82;0.82;;;5.70;85.50;;;5.43;66.98;93171.94;5037090;28;20509;-19
2023/02/25 03:31:33;;;;;;;0.63;0.63;;;5.70;85.40;;;5.42;67.19;93178.13;5036966;28;20299;-19
2023/02/25 03:34:07;;;;;;;0.80;0.80;;;5.70;85.30;;;5.34;66.78;93169.75;5055000;28;20528;-19
2023/02/25 03:37:15;;;;;;;0.60;0.60;;;5.70;85.20;;;5.33;67.00;93176.75;5054771;28;20516;-19
2023/02/25 03:39:49;;;;;;;0.70;0.70;;;5.60;85.20;;;5.23;66.75;93168.56;5042420;28;20220;-19
2023/02/25 03:42:23;;;;;;;0.70;0.70;;;5.60;84.90;;;5.18;67.76;93189.97;5020597;28;20200;-19
2023/02/25 03:44:57;;;;;;;0.70;0.70;;;5.50;85.20;;;5.17;67.73;93185.75;5036935;28;20192;-19
2023/02/25 03:47:28;;;;;;;0.70;0.70;;;5.50;85.40;;;5.16;68.01;93173.75;5057708;28;20172;-19
2023/02/25 03:50:25;;;;;;;0.60;0.60;;;5.50;86.40;;;5.18;67.67;93199.56;5040743;28;20192;-19
2023/02/25 03:52:57;;;;;;;0.70;0.70;;;5.50;85.60;;;5.16;67.95;93201.56;5025404;28;20722;-19
2023/02/25 03:55:50;;;;;;;0.70;0.70;;;5.50;85.80;;;5.19;67.87;93201.13;5041327;28;20212;-19
2023/02/25 03:58:18;;;;;;;0.70;0.70;;;5.40;85.70;;;5.19;67.86;93194.16;5024201;28;20230;-19
2023/02/25 04:00:48;;;;;;;0.60;0.60;;;5.50;86.00;;;5.20;67.74;93197.53;5040539;28;20274;-19
2023/02/25 04:03:15;;;;;;;0.73;0.73;;;5.50;85.80;;;5.22;67.41;93209.34;5040761;28;20188;-19
2023/02/25 04:05:42;;;;;;;0.60;0.60;;;5.50;85.80;;;5.23;67.49;93200.53;5056878;28;20207;-19
2023/02/25 04:08:14;;;;;;;0.70;0.70;;;5.50;85.80;;;5.23;67.66;93202.34;5040366;28;20235;-19
2023/02/25 04:10:44;;;;;;;0.60;0.60;;;5.50;85.90;;;5.19;67.32;93209.75;5040351;28;20291;-19
2023/02/25 04:13:15;;;;;;;0.70;0.70;;;5.50;85.90;;;5.24;67.80;93222.16;5024123;28;20216;-19
2023/02/25 04:15:42;;;;;;;0.80;0.80;;;5.50;86.00;;;5.25;67.37;93205.56;5057624;28;20202;-19
2023/02/25 04:18:10;;;;;;;0.60;0.60;;;5.50;86.00;;;5.27;67.06;93203.53;5023962;28;20207;-19
2023/02/25 04:20:38;;;;;;;0.70;0.70;;;5.50;85.80;;;5.26;67.02;93225.34;5056725;28;20238;-19
2023/02/25 04:23:05;;;;;;;0.63;0.63;;;5.50;85.60;;;5.25;67.45;93211.56;5040081;28;20521;-19
2023/02/25 04:25:33;;;;;;;0.70;0.70;;;5.60;85.80;;;5.25;67.68;93208.94;5057464;28;20207;-19
2023/02/25 04:28:00;;;;;;;0.70;0.70;;;5.50;85.70;;;5.29;67.63;93204.16;5057867;28;20193;-19
2023/02/25 04:30:27;;;;;;;0.68;0.68;;;5.60;85.90;;;5.29;67.29;93217.94;5057517;28;20515;-19
2023/02/25 04:32:54;;;;;;;0.80;0.80;;;5.60;85.80;;;5.26;67.00;93201.94;5040107;28;20215;-19
2023/02/25 04:35:21;;;;;;;0.70;0.70;;;5.60;85.30;;;5.24;66.65;93186.56;5057288;28;20204;-19
2023/02/25 04:37:48;;;;;;;0.60;0.60;;;5.60;85.30;;;5.22;67.10;93190.34;5057470;28;20524;-19
2023/02/25 04:40:21;;;;;;;0.70;0.70;;;5.60;85.30;;;5.16;66.71;93191.94;5057365;28;20188;-19
2023/02/25 04:42:49;;;;;;;0.77;0.77;;;5.50;84.90;;;5.09;66.86;93204.16;5057704;28;20194;-19
2023/02/25 04:45:16;;;;;;;0.60;0.60;;;5.50;84.90;;;5.00;66.88;93200.16;5040043;28;20200;-19
2023/02/25 04:47:43;;;;;;;0.70;0.70;;;5.40;84.80;;;4.97;67.28;93209.94;5057178;28;20211;-19
2023/02/25 04:50:11;;;;;;;0.80;0.80;;;5.30;85.00;;;4.96;67.66;93204.97;5057410;28;20200;-19
2023/02/25 04:52:38;;;;;;;0.70;0.70;;;5.30;85.20;;;4.96;67.46;93207.56;5057015;28;20200;-19
2023/02/25 04:55:08;;;;;;;0.70;0.70;;;5.30;85.40;;;4.90;67.65;93211.75;5056932;28;20188;-19
2023/02/25 04:57:41;;;;;;;0.60;0.60;;;5.30;85.50;;;4.88;67.79;93215.53;5039867;28;20291;-19
2023/02/25 05:00:17;;;;;;;0.70;0.70;;;5.20;85.50;;;4.85;67.43;93211.53;5057273;28;20554;-19
2023/02/25 05:02:49;;;;;;;0.70;0.70;;;5.20;85.40;;;4.79;67.56;93214.94;5040850;28;20623;-19
2023/02/25 05:05:17;;;;;;;0.70;0.70;;;5.20;85.50;;;4.77;67.72;93216.91;5023410;28;20639;-19
2023/02/25 05:07:44;;;;;;;0.70;0.70;;;5.10;85.40;;;4.73;68.04;93226.91;5056818;28;20188;-19
2023/02/25 05:10:16;;;;;;;0.70;0.70;;;5.10;85.40;;;4.72;68.03;93208.94;5056766;28;20196;-19
2023/02/25 05:12:44;;;;;;;0.70;0.70;;;5.10;85.50;;;4.69;68.46;93204.94;5056945;28;20199;-19
2023/02/25 05:15:11;;;;;;;0.70;0.70;;;5.10;85.70;;;4.68;68.38;93212.94;5056904;28;20231;-19
2023/02/25 05:17:38;;;;;;;0.80;0.80;;;5.00;86.40;;;4.71;68.63;93215.94;5038889;28;20196;-19
2023/02/25 05:20:10;;;;;;;0.70;0.70;;;5.00;86.00;;;4.68;68.65;93228.50;5035866;28;20237;-19
2023/02/25 05:22:41;;;;;;;0.60;0.60;;;5.00;86.00;;;4.70;68.51;93223.91;5036966;28;20242;-19
2023/02/25 05:25:09;;;;;;;0.60;0.60;;;5.00;85.80;;;4.67;68.38;93222.50;5036742;28;20227;-19
2023/02/25 05:27:37;;;;;;;0.70;0.70;;;5.00;86.10;;;4.70;68.47;93237.69;5036768;28;20192;-20
2023/02/25 05:30:04;;;;;;;0.80;0.80;;;5.00;86.10;;;4.71;68.86;93230.69;5036489;28;20649;-19
2023/02/25 05:32:32;;;;;;;0.70;0.70;;;5.00;86.10;;;4.72;68.74;93232.31;5035886;28;20220;-19
2023/02/25 05:34:59;;;;;;;0.80;0.80;;;5.00;86.30;;;4.74;68.97;93259.69;5036324;28;20221;-19
2023/02/25 05:37:26;;;;;;;0.60;0.60;;;5.00;86.40;;;4.79;68.46;93254.69;5019262;28;20228;-19
2023/02/25 05:39:53;;;;;;;0.70;0.70;;;5.10;87.30;;;4.76;68.12;93243.88;5035643;28;20492;-19
2023/02/25 05:42:20;;;;;;;0.70;0.70;;;5.10;86.10;;;4.64;67.74;93241.09;5036239;28;20189;-19
2023/02/25 05:44:47;;;;;;;0.60;0.60;;;5.10;85.80;;;4.59;67.13;93246.03;5035272;28;20201;-19
2023/02/25 05:47:15;;;;;;;0.70;0.70;;;5.00;85.20;;;4.48;67.12;93250.03;5036527;28;20230;-19
2023/02/25 05:49:42;;;;;;;0.65;0.65;;;4.90;85.10;;;4.41;67.09;93249.22;5036314;28;20196;-19
2023/02/25 05:52:11;;;;;;;0.70;0.70;;;4.80;85.10;;;4.22;66.29;93235.16;5036071;28;20652;-19
2023/02/25 05:54:39;;;;;;;0.70;0.70;;;4.70;84.40;;;4.12;65.93;93245.91;5036234;28;20233;-19
2023/02/25 05:57:06;;;;;;;0.70;0.70;;;4.50;84.50;;;4.03;65.57;93260.03;5036092;28;20201;-19
2023/02/25 05:59:35;;;;;;;0.80;0.80;;;4.40;84.20;;;3.96;65.55;93258.19;5035889;28;20203;-19
2023/02/25 06:02:03;;;;;;;0.80;0.80;;;4.30;84.20;;;3.87;65.62;93259.38;5035069;28;20266;-19
2023/02/25 06:04:30;;;;;;;0.70;0.70;;;4.20;84.10;;;3.84;65.72;93260.56;5035849;28;20197;-19
2023/02/25 06:06:57;;;;;;;0.75;0.75;;;4.10;84.30;;;3.77;65.62;93257.13;5034840;28;20196;-19
2023/02/25 06:09:25;;;;;;;0.70;0.70;;;4.10;84.60;;;3.82;64.05;93267.72;5035167;28;20279;-19
2023/02/25 06:11:52;;;;;;;0.70;0.70;;;4.10;84.10;;;3.77;64.48;93266.66;5034777;28;20196;-19
2023/02/25 06:14:19;;;;;;;0.70;0.70;;;4.10;84.10;;;3.77;63.64;93270.09;5034729;28;20221;-19
2023/02/25 06:16:47;;;;;;;0.70;0.70;;;4.00;83.60;;;3.77;63.12;93269.25;5035448;28;20196;-19
2023/02/25 06:19:14;;;;;;;0.70;0.70;;;4.00;83.30;;;3.77;63.31;93290.00;5036768;28;20185;-19
2023/02/25 06:21:41;;;;;;;0.77;0.77;;;4.00;83.10;;;3.72;63.72;93263.84;5055774;28;20177;-19
2023/02/25 06:24:09;;;;;;;0.70;0.70;;;3.90;83.70;;;3.81;62.95;93263.50;5055688;28;20269;-19
2023/02/25 06:26:40;;;;;;;0.70;0.70;;;4.00;82.90;;;3.76;62.82;93271.06;5055223;28;20196;-19
2023/02/25 06:29:08;;;;;;;0.70;0.70;;;4.00;83.10;;;3.73;62.86;93274.03;5055751;28;20188;-19
2023/02/25 06:31:36;;;;;;;0.70;0.70;;;3.90;83.10;;;3.72;63.20;93267.25;5055560;28;20196;-19
2023/02/25 06:34:04;;;;;;;0.77;0.77;;;3.90;83.20;;;3.73;63.46;93275.84;5055719;28;20239;-19
2023/02/25 06:36:32;;;;;;;0.70;0.70;;;3.90;83.10;;;3.77;64.17;93290.81;5055251;28;20215;-19
2023/02/25 06:39:00;;;;;;;0.70;0.70;;;4.00;83.70;;;3.80;65.15;93282.66;5055182;28;20199;-19
2023/02/25 06:41:27;;;;;;;0.70;0.70;;;4.00;83.60;;;3.85;65.16;93289.88;5055122;28;20620;-19
2023/02/25 06:43:56;;;;;;;0.70;0.70;;;4.00;84.20;;;3.88;65.57;93293.88;5038030;28;20210;-19
2023/02/25 06:46:25;;;;;;;0.70;0.70;;;4.10;84.60;;;3.95;65.60;93298.09;5055129;28;20188;-19
2023/02/25 06:48:53;;;;;;;0.60;0.60;;;4.10;84.50;;;3.98;65.58;93289.94;5054997;28;20196;-19
2023/02/25 06:51:21;;;;;;;0.70;0.70;;;4.20;84.90;;;4.06;65.83;93291.56;5055125;28;20199;-19
2023/02/25 06:53:49;;;;;;;0.70;0.70;;;4.20;85.00;;;4.11;65.08;93289.22;5054904;28;20663;-19
2023/02/25 06:56:18;;;;;;;0.82;0.82;;;4.30;85.00;;;4.20;64.34;93296.81;5054928;28;20202;-18
2023/02/25 06:58:47;;;;;;;0.60;0.60;;;4.40;84.30;;;4.21;62.48;93294.06;5038365;28;20196;-18
2023/02/25 07:01:16;;;;;;;0.60;0.60;;;4.40;83.50;;;4.28;63.07;93301.88;5054898;28;20196;-19
2023/02/25 07:03:44;;;;;;;0.70;0.70;;;4.40;83.60;;;4.35;63.38;93301.91;5037636;28;20200;-18
2023/02/25 07:06:14;;;;;;;0.70;0.70;;;4.50;83.80;;;4.36;63.59;93301.72;5055153;28;20192;-19
2023/02/25 07:08:41;;;;;;;0.80;0.80;;;4.50;84.00;;;4.43;62.65;93310.31;5055371;28;20184;-19
2023/02/25 07:11:17;;;;;;;0.80;0.80;;;4.60;83.60;;;4.44;63.34;93308.50;5054883;28;20196;-19
2023/02/25 07:13:48;;;;;;;0.80;0.80;;;4.70;83.40;;;4.46;62.63;93302.13;5055269;28;20200;-19
2023/02/25 07:16:16;;;;;;;0.60;0.60;;;4.70;83.50;;;4.55;61.98;93304.56;5054897;28;20583;-23
2023/02/25 07:18:44;;;;;;;0.60;0.60;;;4.70;82.90;;;4.52;60.87;93308.34;5054936;28;20223;-19
2023/02/25 07:21:12;;;;;;;0.60;0.60;;;4.70;82.30;;;4.49;61.93;93309.53;5055423;28;20252;-19
2023/02/25 07:23:40;;;;;;;0.73;0.73;;;4.70;82.40;;;4.49;62.44;93316.53;5058953;28;20196;-19
2023/02/25 07:26:10;;;;;;;0.80;0.80;;;4.70;83.00;;;4.53;62.17;93317.75;5041437;28;20196;-19
2023/02/25 07:28:38;;;;;;;0.60;0.60;;;4.70;82.90;;;4.63;61.51;93314.78;5059637;28;20587;-19
2023/02/25 07:31:18;;;;;;;0.70;0.70;;;4.80;83.00;;;4.66;59.90;93311.78;5058665;28;20188;-19
2023/02/25 07:33:45;;;;;;;0.70;0.70;;;4.90;81.10;;;4.63;59.12;93309.59;5041492;28;20231;-19
2023/02/25 07:36:14;;;;;;;0.70;0.70;;;4.90;81.10;;;4.59;61.07;93316.97;5058659;28;20218;-19
2023/02/25 07:38:41;;;;;;;0.60;0.60;;;4.80;82.00;;;4.67;61.56;93321.19;5058512;28;20650;-19
2023/02/25 07:41:12;;;;;;;0.70;0.70;;;4.90;82.60;;;4.76;62.18;93322.63;5058485;28;20189;-19
2023/02/25 07:43:39;;;;;;;0.80;0.80;;;5.00;83.20;;;4.85;59.96;93315.44;5059033;28;20180;-19
2023/02/25 07:46:07;;;;;;;0.70;0.70;;;5.10;81.20;;;4.84;60.53;93323.44;5058478;28;20271;-19
2023/02/25 07:48:35;;;;;;;0.70;0.70;;;5.10;82.10;;;4.91;61.67;93319.84;5058559;28;20200;-19
2023/02/25 07:51:28;;;;;;;0.70;0.70;;;5.10;82.60;;;5.02;61.61;93312.50;5058578;28;20631;-19
2023/02/25 07:53:57;;;;;;;0.70;0.70;;;5.30;83.00;;;5.14;60.50;93323.91;5055715;28;20228;-19
2023/02/25 07:56:27;;;;;;;0.80;0.80;;;5.30;82.20;;;5.16;59.55;93318.50;5058277;28;20196;-17
2023/02/25 07:58:54;;;;;;;0.60;0.60;;;5.40;81.10;;;5.18;59.11;93309.50;5058387;28;20255;-17
2023/02/25 08:01:28;;;;;;;0.70;0.70;;;5.50;80.70;;;5.22;60.91;93315.13;5040778;28;20530;-17
2023/02/25 08:04:05;;;;;;;0.60;0.60;;;5.50;81.80;;;5.23;61.18;93320.13;5058358;28;20214;-17
2023/02/25 08:06:39;;;;;;;0.70;0.70;;;5.50;82.10;;;5.30;61.36;93327.94;5058237;28;20217;-17
2023/02/25 08:09:12;;;;;;;0.70;0.70;;;5.60;82.40;;;5.33;59.86;93300.72;5058309;28;20191;-17
2023/02/25 08:11:40;;;;;;;0.60;0.60;;;5.60;81.20;;;5.36;59.98;93332.34;5008362;28;20206;-18
2023/02/25 08:14:07;;;;;;;0.70;0.70;;;5.70;81.50;;;5.45;58.84;93323.31;5057937;28;20723;-17
2023/02/25 08:16:34;;;;;;;0.60;0.60;;;5.70;80.90;;;5.45;59.86;93306.94;5057681;28;20199;-17
2023/02/25 08:19:02;;;;;;;0.80;0.80;;;5.70;81.60;;;5.52;60.44;93325.16;5057882;28;20212;-17
2023/02/25 08:21:29;;;;;;;0.60;0.60;;;5.80;82.60;;;5.57;59.30;93325.34;5040808;28;20223;-17
2023/02/25 08:23:57;;;;;;;0.70;0.70;;;5.80;81.60;;;5.61;58.35;93322.16;5057668;28;20195;-17
2023/02/25 08:26:26;;;;;;;0.70;0.70;;;5.90;79.90;;;5.49;58.04;93320.34;5040124;28;20271;-17
2023/02/25 08:28:55;;;;;;;0.60;0.60;;;5.80;80.10;;;5.40;58.74;93314.53;5057551;28;20204;-17
2023/02/25 08:31:22;;;;;;;0.60;0.60;;;5.80;80.20;;;5.42;57.16;93321.13;5057438;28;20287;-17
2023/02/25 08:33:51;;;;;;;0.90;0.90;;;5.70;79.00;;;5.36;59.54;93313.31;5057024;28;20219;-17
2023/02/25 08:36:26;;;;;;;0.80;0.80;;;5.70;81.00;;;5.35;58.26;93320.34;5057320;28;20271;-17
2023/02/25 08:38:56;;;;;;;0.70;0.70;;;5.70;79.50;;;5.36;58.86;93337.53;5040038;28;20282;-17
2023/02/25 08:41:25;;;;;;;0.70;0.70;;;5.70;80.10;;;5.44;58.99;93324.34;5057867;28;20219;-17
2023/02/25 08:43:57;;;;;;;0.57;0.57;;;5.70;80.20;;;5.52;57.66;93322.56;5023667;28;20200;-18
2023/02/25 08:46:29;;;;;;;0.60;0.60;;;5.80;79.60;;;5.58;57.40;93327.75;5024112;28;20204;-17
2023/02/25 08:48:57;;;;;;;0.70;0.70;;;5.80;79.60;;;5.66;56.41;93328.53;5039683;28;20192;-17
2023/02/25 08:51:32;;;;;;;0.70;0.70;;;5.90;79.30;;;5.72;56.24;93327.75;5057222;28;20582;-17
2023/02/25 08:54:09;;;;;;;0.60;0.60;;;5.90;79.40;;;5.69;57.22;93318.53;5057067;28;20209;-17
2023/02/25 08:56:44;;;;;;;0.75;0.75;;;6.00;79.60;;;5.81;57.27;93320.53;5057663;28;20622;-17
2023/02/25 08:59:14;;;;;;;0.60;0.60;;;6.00;80.40;;;5.85;56.03;93327.72;5057342;28;20251;-17
2023/02/25 09:01:45;;;;;;;0.60;0.60;;;6.10;78.90;;;5.93;56.74;93343.13;5056890;28;20203;-17
2023/02/25 09:04:24;;;;;;;0.70;0.70;;;6.20;79.60;;;5.91;54.47;93334.72;5057267;28;20188;-17
2023/02/25 09:06:52;;;;;;;0.60;0.60;;;6.20;77.50;;;5.80;57.07;93324.94;5057200;28;20508;-17
2023/02/25 09:09:20;;;;;;;0.77;0.77;;;6.20;79.40;;;5.83;56.46;93328.94;5057117;28;20287;-17
2023/02/25 09:11:48;;;;;;;0.70;0.70;;;6.20;78.70;;;5.84;55.28;93343.56;5019167;28;20208;-17
2023/02/25 09:14:15;;;;;;;0.70;0.70;;;6.20;78.40;;;5.80;55.37;93345.75;5042172;28;20299;-17
2023/02/25 09:16:43;;;;;;;0.80;0.80;;;6.20;78.10;;;5.79;56.34;93318.13;5056658;28;20192;-17
2023/02/25 09:19:11;;;;;;;0.68;0.68;;;6.20;78.70;;;5.67;56.51;93345.75;5055865;28;20624;-17
2023/02/25 09:21:41;;;;;;;0.80;0.80;;;6.20;78.40;;;5.68;54.78;93339.56;5056965;28;20252;-17
2023/02/25 09:24:09;;;;;;;0.60;0.60;;;6.10;77.50;;;5.71;55.05;93350.38;5056847;28;20188;-17
2023/02/25 09:26:36;;;;;;;0.70;0.70;;;6.10;77.80;;;5.72;55.15;93358.94;5056493;28;20283;-17
2023/02/25 09:29:05;;;;;;;0.82;0.82;;;6.10;77.30;;;5.70;55.35;93347.94;5055576;28;20196;-17
2023/02/25 09:31:35;;;;;;;0.80;0.80;;;6.10;77.90;;;5.70;55.85;93372.16;5056631;28;20211;-18
2023/02/25 09:34:06;;;;;;;0.70;0.70;;;6.10;78.00;;;5.73;54.91;93365.75;5056476;28;20224;-18
2023/02/25 09:36:35;;;;;;;0.80;0.80;;;6.10;77.40;;;5.72;54.57;93353.75;5056326;28;20176;-18
2023/02/25 09:39:02;;;;;;;0.70;0.70;;;6.10;77.50;;;5.73;53.87;93355.34;5056337;28;20275;-18
2023/02/25 09:41:45;;;;;;;0.70;0.70;;;6.10;76.40;;;5.58;54.73;93364.16;5056200;28;20196;-17
2023/02/25 09:44:26;;;;;;;0.70;0.70;;;6.10;76.40;;;5.73;54.74;93355.34;5055653;28;20275;-17
2023/02/25 09:47:09;;;;;;;0.70;0.70;;;6.10;77.20;;;5.79;54.20;93377.97;5056355;28;20207;-17
2023/02/25 09:49:49;;;;;;;0.70;0.70;;;6.10;76.70;;;5.92;55.39;93371.97;5039027;28;20188;-17
2023/02/25 09:52:31;;;;;;;0.70;0.70;;;6.20;77.70;;;6.01;54.38;93362.97;5055253;28;20218;-18
2023/02/25 09:55:15;;;;;;;0.70;0.70;;;6.30;76.80;;;6.00;53.83;93382.19;5055124;28;20542;-17
2023/02/25 09:57:53;;;;;;;0.70;0.70;;;6.40;76.00;;;6.06;53.51;93354.56;5055410;28;20177;-18
2023/02/25 10:00:22;;;;;;;0.70;0.70;;;6.40;75.90;;;6.19;53.84;93349.34;5055630;28;20251;-18
2023/02/25 10:03:04;;;;;;;0.70;0.70;;;6.50;75.70;;;6.37;53.97;93353.09;5055662;28;20184;-17
2023/02/25 10:05:54;;;;;;;0.70;0.70;;;6.60;76.90;;;6.52;52.12;93350.28;5055220;28;20184;-17
2023/02/25 10:08:37;;;;;;;0.60;0.60;;;6.80;74.60;;;6.63;53.58;93352.22;5055171;28;20250;-17
2023/02/25 10:11:12;;;;;;;0.60;0.60;;;6.90;76.80;;;6.79;50.72;93368.41;5038340;28;20191;-17
2023/02/25 10:14:12;;;;;;;0.60;0.60;;;7.10;73.80;;;6.78;51.58;93359.78;5054739;28;20180;-17
2023/02/25 10:16:53;;;;;;;0.70;0.70;;;7.20;73.70;;;6.76;51.55;93355.78;5055880;28;20658;-17
2023/02/25 10:20:06;;;;;;;0.70;0.70;;;7.20;73.90;;;6.77;51.95;93350.34;5055195;28;20238;-18
2023/02/25 10:22:50;;;;;;;0.70;0.70;;;7.20;73.90;;;6.85;52.20;93351.94;5055549;28;20196;-17
2023/02/25 10:25:47;;;;;;;0.68;0.68;;;7.20;74.00;;;6.86;50.91;93348.31;5039217;28;20251;-17
2023/02/25 10:28:16;;;;;;;0.55;0.55;;;7.20;72.90;;;6.76;51.24;93356.56;5055322;28;20203;-17
2023/02/25 10:31:11;;;;;;;0.80;0.80;;;7.20;72.20;;;6.70;50.74;93365.22;5054556;28;20218;-17
2023/02/25 10:33:41;;;;;;;0.60;0.60;;;7.20;71.80;;;6.62;54.53;93355.84;5054954;28;20200;-17
2023/02/25 10:36:33;;;;;;;0.60;0.60;;;7.10;73.80;;;6.59;53.95;93371.84;5036732;28;20215;-17
2023/02/25 10:39:00;;;;;;;0.60;0.60;;;7.10;73.80;;;6.48;53.59;93365.50;5054768;28;20294;-17
2023/02/25 10:41:28;;;;;;;0.60;0.60;;;7.00;73.40;;;6.47;54.51;93376.91;5054952;28;20702;-18
2023/02/25 10:43:56;;;;;;;0.68;0.68;;;7.00;73.70;;;6.38;53.79;93362.50;5054834;28;20202;-17
2023/02/25 10:46:55;;;;;;;0.60;0.60;;;7.00;73.50;;;6.27;54.75;93381.38;5054864;28;20188;-17
2023/02/25 10:49:28;;;;;;;0.80;0.80;;;6.90;73.80;;;6.08;53.67;93379.38;5037784;28;20177;-17
2023/02/25 10:51:57;;;;;;;0.70;0.70;;;6.70;72.30;;;6.06;55.27;93372.78;5037612;28;20176;-17
2023/02/25 10:54:27;;;;;;;0.80;0.80;;;6.60;73.50;;;6.04;55.63;93375.59;5036298;28;20713;-17
2023/02/25 10:56:54;;;;;;;0.80;0.80;;;6.50;73.40;;;6.05;56.99;93374.59;5054410;28;20188;-17